Time;durP1;ratioP1;P1;durP2;ratioP2;P2;SDS_P1;SDS_P2;PMS_P1;PMS_P2;Temp;Humidity;BMP_temperature;BMP_pressure;BME280_temperature;BME280_humidity;BME280_pressure;Samples;Min_cycle;Max_cycle;Signal;HPM_P1;HPM_P2
2022/10/10 00:01:11;;;;;;;6.55;4.63;;;8.50;99.90;;;;;;4947608;28;20055;-60
2022/10/10 00:03:37;;;;;;;7.20;4.75;;;8.50;99.90;;;;;;4964693;28;20374;-60
2022/10/10 00:06:03;;;;;;;7.22;4.68;;;8.40;99.90;;;;;;4962865;28;20126;-60
2022/10/10 00:08:29;;;;;;;8.63;5.28;;;8.40;99.90;;;;;;4965044;28;20138;-59
2022/10/10 00:10:55;;;;;;;7.20;4.75;;;8.50;99.90;;;;;;4964668;28;20129;-60
2022/10/10 00:13:20;;;;;;;7.38;4.95;;;8.30;99.90;;;;;;4964329;28;20660;-61
2022/10/10 00:15:46;;;;;;;10.38;5.07;;;8.30;99.90;;;;;;4964686;28;20126;-60
2022/10/10 00:18:12;;;;;;;9.30;4.80;;;8.20;99.90;;;;;;4964171;28;20051;-60
2022/10/10 00:20:38;;;;;;;8.35;4.85;;;8.20;99.90;;;;;;4964769;28;20101;-60
2022/10/10 00:23:03;;;;;;;9.32;4.90;;;8.20;99.90;;;;;;4963412;28;20038;-59
2022/10/10 00:25:29;;;;;;;7.63;4.78;;;8.10;99.90;;;;;;4965207;28;20078;-59
2022/10/10 00:27:54;;;;;;;8.43;5.13;;;8.20;99.90;;;;;;4964733;28;20043;-60
2022/10/10 00:30:20;;;;;;;6.68;4.70;;;8.10;99.90;;;;;;4947036;28;20058;-60
2022/10/10 00:32:46;;;;;;;10.00;4.97;;;8.10;99.90;;;;;;4963992;28;20443;-59
2022/10/10 00:35:12;;;;;;;8.57;4.75;;;8.10;99.90;;;;;;4964384;28;20058;-60
2022/10/10 00:37:37;;;;;;;6.30;4.57;;;8.00;99.90;;;;;;4963837;28;20042;-59
2022/10/10 00:40:04;;;;;;;7.72;4.85;;;8.10;99.90;;;;;;4964196;28;20503;-60
2022/10/10 00:42:30;;;;;;;11.15;5.00;;;8.10;99.90;;;;;;4964699;28;20066;-60
2022/10/10 00:45:26;;;;;;;8.00;4.50;;;8.10;99.90;;;;;;4964794;28;20171;-59
2022/10/10 00:47:59;;;;;;;10.27;5.13;;;8.10;99.90;;;;;;4964603;28;20078;-59
2022/10/10 00:50:25;;;;;;;8.45;4.88;;;8.10;99.90;;;;;;4964335;28;20085;-61
2022/10/10 00:52:51;;;;;;;6.68;4.57;;;8.00;99.90;;;;;;4962583;28;20502;-60
2022/10/10 00:55:17;;;;;;;8.90;4.72;;;7.90;99.90;;;;;;4964166;28;20043;-61
2022/10/10 00:57:43;;;;;;;6.95;4.57;;;8.00;99.90;;;;;;4946945;28;20051;-60
2022/10/10 01:00:09;;;;;;;7.53;4.20;;;8.00;99.90;;;;;;4963878;28;20069;-60
2022/10/10 01:02:35;;;;;;;8.18;4.43;;;7.90;99.90;;;;;;4963804;28;20082;-61
2022/10/10 01:05:01;;;;;;;6.63;4.10;;;8.00;99.90;;;;;;4964148;28;20074;-60
2022/10/10 01:07:30;;;;;;;6.72;4.10;;;8.00;99.90;;;;;;4937660;28;20697;-60
2022/10/10 01:10:00;;;;;;;5.45;3.92;;;7.90;99.90;;;;;;4963745;28;20050;-59
2022/10/10 01:12:31;;;;;;;8.35;4.30;;;7.90;99.90;;;;;;4963657;28;20058;-60
2022/10/10 01:15:15;;;;;;;7.53;3.90;;;8.00;99.90;;;;;;4947393;28;20058;-59
2022/10/10 01:17:51;;;;;;;9.68;4.00;;;8.00;99.90;;;;;;4964072;28;20442;-59
2022/10/10 01:20:32;;;;;;;10.18;4.47;;;8.10;99.90;;;;;;4946059;28;20055;-60
2022/10/10 01:23:15;;;;;;;6.28;4.07;;;8.00;99.90;;;;;;4963106;28;20035;-61
2022/10/10 01:25:56;;;;;;;7.68;4.10;;;8.00;99.90;;;;;;4947234;28;20046;-60
2022/10/10 01:28:47;;;;;;;6.32;4.07;;;8.00;99.90;;;;;;4967741;28;20051;-61
2022/10/10 01:31:15;;;;;;;12.10;4.75;;;8.10;99.90;;;;;;4966821;28;20051;-60
2022/10/10 01:33:59;;;;;;;9.95;4.97;;;8.00;99.90;;;;;;4950593;28;20138;-61
2022/10/10 01:36:47;;;;;;;8.32;4.50;;;8.00;99.90;;;;;;4966974;28;20100;-61
2022/10/10 01:39:22;;;;;;;7.53;4.65;;;8.00;99.90;;;;;;4967307;28;20049;-60
2022/10/10 01:42:05;;;;;;;6.43;4.22;;;7.90;99.90;;;;;;4967947;28;20514;-61
2022/10/10 01:44:30;;;;;;;9.25;4.40;;;7.90;99.90;;;;;;4968090;28;20039;-61
2022/10/10 01:46:57;;;;;;;8.80;4.50;;;8.00;99.90;;;;;;4967440;28;20541;-61
2022/10/10 01:49:28;;;;;;;8.07;4.15;;;7.90;99.90;;;;;;4966904;28;20043;-60
2022/10/10 01:52:22;;;;;;;8.10;4.57;;;8.10;99.90;;;;;;4966891;28;20126;-59
2022/10/10 01:55:31;;;;;;;5.20;4.45;;;8.00;99.90;;;;;;4966943;28;20472;-60
2022/10/10 01:58:21;;;;;;;6.72;4.35;;;7.90;99.90;;;;;;4941724;28;20107;-61
2022/10/10 02:00:57;;;;;;;7.05;4.22;;;7.80;99.90;;;;;;4967359;28;20050;-59
2022/10/10 02:03:28;;;;;;;7.78;4.35;;;7.90;99.90;;;;;;4966173;28;20110;-61
2022/10/10 02:06:02;;;;;;;7.35;4.40;;;7.90;99.90;;;;;;4966296;28;20382;-59
2022/10/10 02:08:36;;;;;;;6.63;4.35;;;7.90;99.90;;;;;;4950066;28;20055;-61
2022/10/10 02:11:09;;;;;;;7.33;4.30;;;7.80;99.90;;;;;;4966895;28;20163;-60
2022/10/10 02:13:40;;;;;;;9.27;4.53;;;7.90;99.90;;;;;;4967253;28;20373;-60
2022/10/10 02:16:10;;;;;;;7.43;4.40;;;7.90;99.90;;;;;;4966417;28;20058;-60
2022/10/10 02:18:37;;;;;;;7.53;4.75;;;7.90;99.90;;;;;;5016689;23;20065;-59
2022/10/10 02:21:07;;;;;;;7.05;4.10;;;7.80;99.90;;;;;;4947052;28;20078;-60
2022/10/10 02:23:33;;;;;;;7.25;4.32;;;7.80;99.90;;;;;;4956572;28;20082;-60
2022/10/10 02:25:59;;;;;;;7.53;4.18;;;7.80;99.90;;;;;;4966585;28;20053;-61
2022/10/10 02:28:34;;;;;;;7.00;4.32;;;7.90;99.90;;;;;;4948856;28;20405;-61
2022/10/10 02:31:05;;;;;;;6.78;4.10;;;7.80;99.90;;;;;;4946453;29;20109;-61
2022/10/10 02:33:48;;;;;;;6.32;4.45;;;7.70;99.90;;;;;;4947185;29;20141;-62
2022/10/10 02:36:17;;;;;;;5.20;3.92;;;7.70;99.90;;;;;;4945591;29;20047;-60
2022/10/10 02:38:44;;;;;;;7.10;4.15;;;7.80;99.90;;;;;;4945631;28;20047;-60
2022/10/10 02:41:13;;;;;;;6.45;4.20;;;8.20;99.90;;;;;;4946824;29;20047;-59
2022/10/10 02:43:39;;;;;;;7.93;4.70;;;7.80;99.90;;;;;;4929875;29;20087;-59
2022/10/10 02:46:08;;;;;;;9.10;4.85;;;7.80;99.90;;;;;;4946091;29;20049;-60
2022/10/10 02:48:34;;;;;;;6.35;4.50;;;7.90;99.90;;;;;;4947180;29;20039;-60
2022/10/10 02:50:59;;;;;;;6.60;4.32;;;7.70;99.90;;;;;;4946727;29;20099;-59
2022/10/10 02:53:25;;;;;;;7.55;4.28;;;7.70;99.90;;;;;;4945981;29;20035;-61
2022/10/10 02:55:51;;;;;;;9.35;4.60;;;7.90;99.90;;;;;;4946715;29;20074;-60
2022/10/10 02:58:17;;;;;;;7.03;4.63;;;7.70;99.90;;;;;;4946358;29;20035;-61
2022/10/10 03:00:42;;;;;;;8.30;4.40;;;7.60;99.90;;;;;;4946773;29;20498;-61
2022/10/10 03:03:08;;;;;;;8.60;4.60;;;7.60;99.90;;;;;;4946087;29;20058;-61
2022/10/10 03:05:33;;;;;;;8.63;4.35;;;7.60;99.90;;;;;;4945638;29;20553;-60
2022/10/10 03:07:59;;;;;;;8.88;4.80;;;7.60;99.90;;;;;;4946543;29;20039;-61
2022/10/10 03:10:25;;;;;;;6.25;4.75;;;7.50;99.90;;;;;;4945978;29;20059;-61
2022/10/10 03:12:50;;;;;;;10.18;4.90;;;7.50;99.90;;;;;;4945211;29;20550;-61
2022/10/10 03:15:16;;;;;;;6.90;4.35;;;7.70;99.90;;;;;;4946214;29;20106;-60
2022/10/10 03:17:42;;;;;;;8.82;4.50;;;7.50;99.90;;;;;;4946008;29;20074;-61
2022/10/10 03:20:08;;;;;;;7.53;4.60;;;7.60;99.90;;;;;;4945311;29;20122;-61
2022/10/10 03:22:34;;;;;;;7.18;4.53;;;7.50;99.90;;;;;;4945666;29;20055;-61
2022/10/10 03:24:59;;;;;;;7.95;4.80;;;7.40;99.90;;;;;;4929124;29;20047;-60
2022/10/10 03:27:25;;;;;;;8.38;4.85;;;7.30;99.90;;;;;;4945714;29;20055;-60
2022/10/10 03:29:51;;;;;;;6.38;5.00;;;7.40;99.90;;;;;;4944861;29;20051;-60
2022/10/10 03:32:17;;;;;;;5.50;4.47;;;7.40;99.90;;;;;;4945208;29;20102;-61
2022/10/10 03:34:42;;;;;;;8.00;4.68;;;7.40;99.90;;;;;;4946043;29;20055;-60
2022/10/10 03:37:08;;;;;;;10.93;5.35;;;7.40;99.90;;;;;;4944654;29;20693;-60
2022/10/10 03:39:34;;;;;;;6.22;4.97;;;7.30;99.90;;;;;;4946053;29;20055;-61
2022/10/10 03:42:00;;;;;;;7.20;4.75;;;7.70;99.90;;;;;;4946243;29;20090;-59
2022/10/10 03:44:25;;;;;;;7.97;4.88;;;7.30;99.90;;;;;;4928089;29;20051;-59
2022/10/10 03:46:51;;;;;;;9.23;5.40;;;7.30;99.90;;;;;;4945100;29;20050;-59
2022/10/10 03:49:17;;;;;;;8.07;4.90;;;7.40;99.90;;;;;;4945245;28;20066;-59
2022/10/10 03:51:42;;;;;;;10.27;4.90;;;7.30;99.90;;;;;;4927668;29;20051;-60
2022/10/10 03:54:08;;;;;;;10.02;5.18;;;7.40;99.90;;;;;;4945165;29;20506;-59
2022/10/10 03:56:34;;;;;;;8.38;5.03;;;7.30;99.90;;;;;;4944255;29;20105;-59
2022/10/10 03:59:02;;;;;;;11.27;5.25;;;7.30;99.90;;;;;;4946046;29;20043;-60
2022/10/10 04:01:28;;;;;;;8.27;5.32;;;7.40;99.90;;;;;;4945090;29;20051;-59
2022/10/10 04:03:55;;;;;;;7.18;5.30;;;7.30;99.90;;;;;;4927636;29;20043;-60
2022/10/10 04:06:21;;;;;;;9.35;5.20;;;7.40;99.90;;;;;;4943635;29;20043;-59
2022/10/10 04:08:47;;;;;;;8.27;5.15;;;7.30;99.90;;;;;;4945364;29;20039;-60
2022/10/10 04:11:12;;;;;;;9.45;5.65;;;7.40;99.90;;;;;;4927587;29;20082;-60
2022/10/10 04:13:39;;;;;;;7.57;5.28;;;7.50;99.90;;;;;;4944618;29;20473;-60
2022/10/10 04:16:05;;;;;;;10.05;5.78;;;7.40;99.90;;;;;;4945136;29;20067;-61
2022/10/10 04:18:30;;;;;;;8.45;5.40;;;7.40;99.90;;;;;;4945126;29;20093;-60
2022/10/10 04:20:56;;;;;;;7.35;5.20;;;7.50;99.90;;;;;;4943893;29;20091;-61
2022/10/10 04:23:22;;;;;;;7.43;5.38;;;7.40;99.90;;;;;;4944574;29;20039;-60
2022/10/10 04:25:51;;;;;;;8.73;5.30;;;7.40;99.90;;;;;;4944965;29;20097;-60
2022/10/10 04:28:18;;;;;;;8.75;5.47;;;7.50;99.90;;;;;;4944851;29;20047;-60
2022/10/10 04:30:44;;;;;;;6.38;4.85;;;7.30;99.90;;;;;;4944857;29;20074;-59
2022/10/10 04:33:10;;;;;;;7.55;4.93;;;7.40;99.90;;;;;;4943772;29;20039;-59
2022/10/10 04:35:36;;;;;;;8.60;5.63;;;7.40;99.90;;;;;;4943590;29;20062;-59
2022/10/10 04:38:02;;;;;;;8.23;5.70;;;7.30;99.90;;;;;;4944548;29;20039;-60
2022/10/10 04:40:28;;;;;;;8.63;5.07;;;7.40;99.90;;;;;;4944990;29;20043;-59
2022/10/10 04:42:54;;;;;;;6.82;5.03;;;7.40;99.90;;;;;;4928546;29;20138;-59
2022/10/10 04:45:20;;;;;;;6.97;4.95;;;7.30;99.90;;;;;;4945018;29;20118;-59
2022/10/10 04:47:46;;;;;;;7.53;5.45;;;7.40;99.90;;;;;;4944455;29;20546;-60
2022/10/10 04:50:11;;;;;;;9.40;5.57;;;7.50;99.90;;;;;;4943664;29;20126;-60
2022/10/10 04:52:37;;;;;;;10.80;5.70;;;7.30;99.90;;;;;;4944607;29;20047;-59
2022/10/10 04:55:03;;;;;;;6.90;5.32;;;7.30;99.90;;;;;;4925977;29;20055;-58
2022/10/10 04:57:29;;;;;;;9.90;5.40;;;7.30;99.90;;;;;;4944297;29;20498;-59
2022/10/10 04:59:55;;;;;;;8.65;5.70;;;7.20;99.90;;;;;;4943923;29;20082;-60
2022/10/10 05:02:20;;;;;;;8.45;5.72;;;7.20;99.90;;;;;;4947034;28;20047;-59
2022/10/10 05:04:46;;;;;;;7.30;5.50;;;7.20;99.90;;;;;;4947268;29;20038;-61
2022/10/10 05:07:12;;;;;;;7.38;5.50;;;7.30;99.90;;;;;;4946988;29;20109;-60
2022/10/10 05:09:37;;;;;;;9.00;5.75;;;7.30;99.90;;;;;;4948206;29;20097;-60
2022/10/10 05:12:03;;;;;;;7.70;5.20;;;7.20;99.90;;;;;;4947932;29;20251;-60
2022/10/10 05:14:29;;;;;;;9.18;5.72;;;7.20;99.90;;;;;;4954560;28;20193;-60
2022/10/10 05:16:55;;;;;;;8.70;6.43;;;7.20;99.90;;;;;;4967704;28;20047;-60
2022/10/10 05:19:20;;;;;;;9.25;6.55;;;7.10;99.90;;;;;;4967553;28;20406;-60
2022/10/10 05:21:46;;;;;;;8.65;6.10;;;7.20;99.90;;;;;;4966411;28;20072;-60
2022/10/10 05:24:12;;;;;;;9.65;5.80;;;7.10;99.90;;;;;;4967021;28;20086;-61
2022/10/10 05:26:37;;;;;;;7.50;5.57;;;7.10;99.90;;;;;;4950288;28;20055;-60
2022/10/10 05:29:04;;;;;;;7.70;5.07;;;7.10;99.90;;;;;;4967783;28;20038;-60
2022/10/10 05:31:30;;;;;;;8.85;5.68;;;7.10;99.90;;;;;;4967096;28;20105;-60
2022/10/10 05:33:56;;;;;;;9.90;6.28;;;7.10;99.90;;;;;;4967049;28;20136;-60
2022/10/10 05:36:21;;;;;;;7.22;5.88;;;7.30;99.90;;;;;;4966433;28;20050;-60
2022/10/10 05:38:47;;;;;;;10.30;6.00;;;7.10;99.90;;;;;;4933628;28;20083;-61
2022/10/10 05:41:13;;;;;;;8.45;5.93;;;7.10;99.90;;;;;;4966804;28;20047;-61
2022/10/10 05:43:38;;;;;;;6.93;5.53;;;7.20;99.90;;;;;;4949738;28;20051;-60
2022/10/10 05:46:04;;;;;;;10.95;6.43;;;7.10;99.90;;;;;;4966449;28;20050;-60
2022/10/10 05:48:30;;;;;;;8.27;6.15;;;7.10;99.90;;;;;;4949951;28;20039;-60
2022/10/10 05:50:58;;;;;;;8.00;5.55;;;7.20;99.90;;;;;;4966021;28;20512;-60
2022/10/10 05:53:25;;;;;;;11.50;5.90;;;7.20;99.90;;;;;;4967394;28;20043;-59
2022/10/10 05:55:51;;;;;;;6.15;5.25;;;7.20;99.90;;;;;;4966226;28;20034;-59
2022/10/10 05:58:17;;;;;;;10.73;6.32;;;7.10;99.90;;;;;;4966795;28;20038;-59
2022/10/10 06:00:44;;;;;;;8.95;5.90;;;7.20;99.90;;;;;;4967310;28;20068;-60
2022/10/10 06:03:13;;;;;;;10.05;6.60;;;7.10;99.90;;;;;;4966462;28;20207;-60
2022/10/10 06:05:43;;;;;;;9.80;6.57;;;7.20;99.90;;;;;;4955629;28;20387;-61
2022/10/10 06:08:09;;;;;;;7.75;5.22;;;7.10;99.90;;;;;;4947255;29;20634;-59
2022/10/10 06:10:37;;;;;;;10.13;6.20;;;7.10;99.90;;;;;;4948098;29;20122;-60
2022/10/10 06:13:03;;;;;;;7.05;5.90;;;7.30;99.90;;;;;;4946504;28;20142;-59
2022/10/10 06:15:29;;;;;;;9.52;6.43;;;7.20;99.90;;;;;;4947859;29;20110;-60
2022/10/10 06:17:55;;;;;;;9.88;6.47;;;7.30;99.90;;;;;;4947113;29;20496;-59
2022/10/10 06:20:21;;;;;;;9.05;6.05;;;7.30;99.90;;;;;;4946131;29;20052;-61
2022/10/10 06:22:47;;;;;;;10.30;6.00;;;7.40;99.90;;;;;;4929772;29;20039;-59
2022/10/10 06:25:12;;;;;;;8.95;5.78;;;7.30;99.90;;;;;;4947341;29;20098;-59
2022/10/10 06:27:38;;;;;;;7.13;5.68;;;7.30;99.90;;;;;;4947543;29;20054;-59
2022/10/10 06:30:04;;;;;;;8.73;6.20;;;7.50;99.90;;;;;;4946329;29;20494;-60
2022/10/10 06:32:30;;;;;;;8.48;6.30;;;7.30;99.90;;;;;;4947712;29;20394;-60
2022/10/10 06:34:55;;;;;;;7.70;5.80;;;7.30;99.90;;;;;;4946688;29;20043;-59
2022/10/10 06:37:21;;;;;;;10.07;6.60;;;7.30;99.90;;;;;;4946668;29;20083;-59
2022/10/10 06:39:47;;;;;;;8.82;6.68;;;7.50;99.90;;;;;;4946093;29;20050;-60
2022/10/10 06:42:12;;;;;;;11.35;6.45;;;7.40;99.90;;;;;;4946477;29;20051;-59
2022/10/10 06:44:38;;;;;;;8.13;6.43;;;7.50;99.90;;;;;;4946606;29;20102;-61
2022/10/10 06:47:04;;;;;;;8.30;6.43;;;7.50;99.90;;;;;;4946266;29;20055;-62
2022/10/10 06:49:29;;;;;;;8.48;6.55;;;7.40;99.90;;;;;;4946841;29;20126;-59
2022/10/10 06:51:55;;;;;;;11.02;6.80;;;7.50;99.90;;;;;;4946233;29;20132;-61
2022/10/10 06:54:21;;;;;;;11.30;7.03;;;7.70;99.90;;;;;;4913750;29;20086;-60
2022/10/10 06:56:47;;;;;;;8.40;6.65;;;7.60;99.90;;;;;;4929057;29;20086;-61
2022/10/10 06:59:12;;;;;;;8.90;6.45;;;7.70;99.90;;;;;;4946386;29;20502;-61
2022/10/10 07:01:38;;;;;;;8.43;6.60;;;7.70;99.90;;;;;;4929618;29;20058;-60
2022/10/10 07:04:04;;;;;;;8.70;6.30;;;7.70;99.90;;;;;;4929514;29;20047;-60
2022/10/10 07:06:30;;;;;;;9.30;6.50;;;7.90;99.90;;;;;;4945364;29;20051;-62
2022/10/10 07:08:57;;;;;;;8.52;6.22;;;8.00;99.90;;;;;;4927307;29;20048;-61
2022/10/10 07:11:24;;;;;;;10.15;6.65;;;8.10;99.90;;;;;;4926207;29;20051;-62
2022/10/10 07:13:51;;;;;;;8.90;6.88;;;8.10;99.90;;;;;;4927015;29;20044;-62
2022/10/10 07:16:17;;;;;;;10.80;6.72;;;8.20;99.90;;;;;;4926797;29;20115;-61
2022/10/10 07:18:42;;;;;;;10.60;7.03;;;8.20;99.90;;;;;;4926906;29;20059;-61
2022/10/10 07:21:08;;;;;;;8.05;6.82;;;8.40;99.90;;;;;;4925753;29;20618;-61
2022/10/10 07:23:35;;;;;;;10.27;7.38;;;8.40;99.90;;;;;;4926211;29;20063;-61
2022/10/10 07:26:06;;;;;;;11.07;6.72;;;8.50;99.90;;;;;;4927196;29;20423;-60
2022/10/10 07:28:32;;;;;;;11.88;6.93;;;8.60;99.90;;;;;;4926962;29;20048;-61
2022/10/10 07:31:07;;;;;;;9.65;6.30;;;8.80;99.90;;;;;;4926922;29;20051;-60
2022/10/10 07:33:37;;;;;;;;;;;8.80;99.90;;;;;;4926413;29;20315;-61
2022/10/10 07:36:03;;;;;;;9.13;6.50;;;9.00;99.90;;;;;;4925541;29;20290;-61
2022/10/10 07:38:29;;;;;;;9.32;5.80;;;9.10;99.90;;;;;;4925972;29;20058;-61
2022/10/10 07:40:55;;;;;;;8.95;6.75;;;9.10;99.90;;;;;;4926229;29;20047;-61
2022/10/10 07:43:21;;;;;;;7.72;6.10;;;9.20;99.90;;;;;;4926072;29;20127;-60
2022/10/10 07:45:46;;;;;;;9.63;7.03;;;9.30;99.90;;;;;;4925959;29;20051;-61
2022/10/10 07:48:12;;;;;;;10.13;7.53;;;9.40;99.90;;;;;;4926280;29;20446;-63
2022/10/10 07:50:42;;;;;;;10.30;7.00;;;9.50;99.90;;;;;;4926630;29;20036;-62
2022/10/10 07:53:09;;;;;;;10.68;6.72;;;9.60;99.90;;;;;;4926272;29;20168;-61
2022/10/10 07:55:38;;;;;;;9.40;6.10;;;9.70;99.90;;;;;;4926076;29;20438;-62
2022/10/10 07:58:03;;;;;;;9.88;7.05;;;9.80;99.90;;;;;;4926120;29;20506;-61
2022/10/10 08:00:29;;;;;;;8.00;6.43;;;9.90;99.90;;;;;;4908962;29;20044;-61
2022/10/10 08:02:55;;;;;;;8.98;6.95;;;10.00;99.90;;;;;;4925162;29;20048;-60
2022/10/10 08:05:20;;;;;;;10.55;7.13;;;10.20;99.90;;;;;;4932043;29;20035;-61
2022/10/10 08:07:46;;;;;;;11.05;7.03;;;10.20;99.90;;;;;;4944773;29;20206;-61
2022/10/10 08:10:12;;;;;;;12.48;7.57;;;10.30;99.90;;;;;;4944612;29;20039;-60
2022/10/10 08:12:38;;;;;;;8.57;6.68;;;10.30;99.90;;;;;;4944714;29;20461;-60
2022/10/10 08:15:05;;;;;;;10.15;6.63;;;10.40;99.90;;;;;;4944979;29;20525;-61
2022/10/10 08:17:31;;;;;;;12.60;7.68;;;10.40;99.90;;;;;;4945063;29;20438;-62
2022/10/10 08:19:57;;;;;;;9.82;6.93;;;10.30;99.90;;;;;;4942013;29;20050;-63
2022/10/10 08:22:22;;;;;;;11.35;7.25;;;10.50;99.90;;;;;;4944006;29;20888;-61
2022/10/10 08:24:48;;;;;;;10.30;6.80;;;10.50;99.90;;;;;;4945447;29;20039;-60
2022/10/10 08:27:16;;;;;;;11.70;6.57;;;10.50;99.90;;;;;;4945060;29;20426;-61
2022/10/10 08:29:42;;;;;;;9.00;5.70;;;10.80;99.90;;;;;;4944442;29;20043;-62
2022/10/10 08:32:08;;;;;;;10.77;6.90;;;10.70;99.90;;;;;;4944159;29;20446;-61
2022/10/10 08:34:34;;;;;;;10.95;7.45;;;11.00;99.90;;;;;;4926759;29;20050;-64
2022/10/10 08:36:59;;;;;;;9.38;6.65;;;11.20;99.90;;;;;;4945146;28;20058;-63
2022/10/10 08:39:25;;;;;;;8.32;5.72;;;11.20;99.90;;;;;;4943884;29;20063;-62
2022/10/10 08:41:54;;;;;;;9.95;6.93;;;11.20;99.90;;;;;;4945096;29;20087;-62
2022/10/10 08:44:43;;;;;;;9.25;6.80;;;11.30;99.90;;;;;;4944827;29;20049;-61
2022/10/10 08:47:08;;;;;;;9.95;6.50;;;11.30;99.90;;;;;;4944910;29;20103;-62
2022/10/10 08:49:46;;;;;;;13.68;7.13;;;11.30;99.90;;;;;;4943957;29;20055;-62
2022/10/10 08:52:31;;;;;;;10.25;7.07;;;11.40;99.90;;;;;;4943521;29;20059;-62
2022/10/10 08:55:00;;;;;;;9.25;6.35;;;11.50;99.90;;;;;;4943945;29;20054;-62
2022/10/10 08:57:46;;;;;;;9.75;6.80;;;11.70;99.90;;;;;;4942360;29;20051;-61
2022/10/10 09:00:16;;;;;;;8.88;6.93;;;11.70;99.90;;;;;;4926683;29;20134;-61
2022/10/10 09:02:52;;;;;;;11.50;6.93;;;11.70;99.90;;;;;;4943783;29;20051;-61
2022/10/10 09:05:40;;;;;;;11.35;6.55;;;11.70;99.90;;;;;;4925746;29;20062;-62
2022/10/10 09:08:20;;;;;;;13.25;7.28;;;11.50;99.90;;;;;;4936709;29;20372;-64
2022/10/10 09:11:16;;;;;;;9.38;7.05;;;11.50;99.90;;;;;;4945063;29;20082;-61
2022/10/10 09:14:05;;;;;;;11.38;6.63;;;11.50;99.90;;;;;;4944759;29;20051;-63
2022/10/10 09:17:05;;;;;;;10.02;6.93;;;11.60;99.90;;;;;;4944217;29;20043;-62
2022/10/10 09:19:46;;;;;;;10.02;6.45;;;11.80;99.90;;;;;;4894713;29;20142;-60
2022/10/10 09:22:16;;;;;;;13.00;7.30;;;12.00;99.90;;;;;;4924587;29;20054;-61
2022/10/10 09:24:54;;;;;;;9.77;6.40;;;12.60;99.90;;;;;;4925044;29;20741;-62
2022/10/10 09:27:26;;;;;;;12.27;7.10;;;13.10;99.90;;;;;;4923999;29;20130;-61
2022/10/10 09:30:15;;;;;;;8.82;6.50;;;13.40;99.90;;;;;;4907708;29;20048;-62
2022/10/10 09:32:51;;;;;;;7.85;6.40;;;13.20;99.90;;;;;;4907994;29;20095;-62
2022/10/10 09:35:21;;;;;;;8.82;6.15;;;13.50;99.90;;;;;;4922819;29;20044;-61
2022/10/10 09:37:57;;;;;;;8.98;6.63;;;13.30;99.90;;;;;;4925949;29;20398;-61
2022/10/10 09:40:33;;;;;;;9.73;6.47;;;13.20;99.90;;;;;;4925356;29;20507;-61
2022/10/10 09:43:10;;;;;;;11.57;7.60;;;13.40;99.90;;;;;;4925557;29;20055;-63
2022/10/10 09:45:41;;;;;;;15.07;8.18;;;13.40;99.90;;;;;;4924597;29;20402;-62
2022/10/10 09:48:09;;;;;;;9.85;7.00;;;13.40;99.90;;;;;;4926657;29;20127;-64
2022/10/10 09:50:36;;;;;;;10.57;7.25;;;13.60;99.90;;;;;;4927572;29;20047;-62
2022/10/10 09:53:02;;;;;;;11.57;7.13;;;13.60;99.90;;;;;;4928278;29;20150;-62
2022/10/10 09:55:36;;;;;;;9.93;7.20;;;13.40;99.90;;;;;;4928360;29;20127;-61
2022/10/10 09:58:20;;;;;;;13.87;7.87;;;13.30;99.90;;;;;;4928651;29;20095;-65
2022/10/10 10:00:46;;;;;;;9.88;6.85;;;13.30;99.90;;;;;;4929194;29;20061;-63
2022/10/10 10:03:17;;;;;;;10.73;6.35;;;13.50;99.90;;;;;;4929060;29;20048;-63
2022/10/10 10:05:59;;;;;;;10.68;7.13;;;13.70;99.90;;;;;;4926708;29;20612;-61
2022/10/10 10:08:31;;;;;;;9.57;7.05;;;14.00;99.90;;;;;;4928046;29;20534;-61
2022/10/10 10:10:57;;;;;;;27.92;7.95;;;14.00;99.90;;;;;;4910906;29;20051;-62
2022/10/10 10:13:29;;;;;;;10.45;7.32;;;13.90;99.90;;;;;;4927929;29;20127;-63
2022/10/10 10:16:29;;;;;;;15.00;7.80;;;13.80;99.90;;;;;;4927832;29;20048;-61
2022/10/10 10:18:54;;;;;;;11.05;7.95;;;13.70;99.90;;;;;;4944892;28;20595;-61
2022/10/10 10:21:23;;;;;;;14.23;7.45;;;13.80;99.90;;;;;;4945527;29;20130;-61
2022/10/10 10:24:01;;;;;;;9.32;7.10;;;13.70;99.90;;;;;;4945810;29;20118;-61
2022/10/10 10:26:32;;;;;;;11.10;7.50;;;13.60;99.90;;;;;;4947054;29;20051;-62
2022/10/10 10:28:57;;;;;;;13.00;7.72;;;13.80;99.90;;;;;;4947548;29;20075;-61
2022/10/10 10:32:07;;;;;;;12.40;7.90;;;13.80;99.90;;;;;;4945857;29;20047;-61
2022/10/10 10:34:54;;;;;;;10.57;8.02;;;13.80;99.90;;;;;;4945292;29;20070;-62
2022/10/10 10:37:39;;;;;;;9.82;7.70;;;14.00;99.90;;;;;;4947189;29;20402;-62
2022/10/10 10:40:07;;;;;;;;;;;14.20;99.90;;;;;;4947475;29;20612;-63
2022/10/10 10:42:44;;;;;;;12.57;7.72;;;14.20;99.90;;;;;;4946827;29;20732;-62
2022/10/10 10:45:13;;;;;;;11.95;7.50;;;14.30;99.90;;;;;;4945288;29;20090;-63
2022/10/10 10:48:03;;;;;;;12.38;8.07;;;14.70;99.90;;;;;;4946673;29;20039;-63
2022/10/10 10:50:56;;;;;;;11.38;7.15;;;15.00;99.90;;;;;;4939353;28;20130;-62
2022/10/10 10:53:43;;;;;;;10.43;7.32;;;14.70;99.90;;;;;;4951788;28;20051;-64
2022/10/10 10:56:26;;;;;;;11.63;7.55;;;14.90;99.90;;;;;;4933650;28;20055;-63
2022/10/10 10:58:55;;;;;;;14.73;9.00;;;14.80;99.90;;;;;;4924225;29;20059;-61
2022/10/10 11:01:45;;;;;;;12.60;7.15;;;15.00;99.90;;;;;;4926572;29;20483;-62
2022/10/10 11:04:29;;;;;;;10.68;8.18;;;15.10;99.90;;;;;;4930849;28;20050;-61
2022/10/10 11:07:01;;;;;;;10.50;7.03;;;15.50;99.90;;;;;;4946616;29;20047;-63
2022/10/10 11:09:39;;;;;;;11.65;7.63;;;15.30;99.90;;;;;;4946358;29;21057;-61
2022/10/10 11:12:20;;;;;;;11.68;6.95;;;15.50;99.90;;;;;;4946667;29;20054;-62
2022/10/10 11:14:53;;;;;;;14.18;7.78;;;15.60;99.90;;;;;;4947187;29;20118;-61
2022/10/10 11:17:47;;;;;;;9.00;6.15;;;15.90;99.90;;;;;;4945392;29;20051;-62
2022/10/10 11:20:15;;;;;;;9.15;6.95;;;15.80;99.90;;;;;;4945257;29;20600;-62
2022/10/10 11:22:47;;;;;;;11.93;7.57;;;15.70;99.90;;;;;;4946314;29;20521;-63
2022/10/10 11:25:22;;;;;;;9.57;6.43;;;15.60;99.90;;;;;;4928999;29;20086;-62
2022/10/10 11:28:04;;;;;;;10.18;7.55;;;15.50;99.90;;;;;;4946718;29;20083;-63
2022/10/10 11:30:33;;;;;;;9.77;6.88;;;15.50;99.90;;;;;;4946619;29;20047;-63
2022/10/10 11:33:34;;;;;;;14.77;7.55;;;15.30;99.90;;;;;;4946749;29;20398;-62
2022/10/10 11:36:11;;;;;;;10.57;7.15;;;15.40;99.90;;;;;;4936934;29;20406;-64
2022/10/10 11:39:02;;;;;;;15.35;7.43;;;15.50;99.90;;;;;;4944630;28;20047;-63
2022/10/10 11:41:46;;;;;;;10.93;7.60;;;15.50;99.90;;;;;;4946529;29;20089;-63
2022/10/10 11:44:41;;;;;;;15.60;7.65;;;15.50;99.90;;;;;;4946207;29;20494;-63
2022/10/10 11:47:15;;;;;;;9.30;5.68;;;15.40;99.90;;;;;;4928036;29;20492;-63
2022/10/10 11:50:02;;;;;;;9.07;6.57;;;15.20;99.90;;;;;;4945999;29;20035;-61
2022/10/10 11:52:59;;;;;;;9.27;6.53;;;15.20;99.90;;;;;;4945947;29;20043;-62
2022/10/10 11:55:44;;;;;;;10.35;6.10;;;15.00;99.90;;;;;;4945917;29;20059;-60
2022/10/10 11:58:09;;;;;;;12.55;7.15;;;15.00;99.90;;;;;;4928343;29;20490;-63
2022/10/10 12:00:41;;;;;;;11.57;6.82;;;14.90;99.90;;;;;;4946028;29;20106;-62
2022/10/10 12:03:08;;;;;;;11.18;7.22;;;14.90;99.90;;;;;;4945215;29;20058;-62
2022/10/10 12:05:37;;;;;;;18.05;8.05;;;14.80;99.90;;;;;;4944346;29;20050;-64
2022/10/10 12:08:22;;;;;;;12.43;7.65;;;14.70;99.90;;;;;;4945125;29;20054;-61
2022/10/10 12:10:52;;;;;;;16.85;8.25;;;14.70;99.90;;;;;;4945343;28;20054;-62
2022/10/10 12:13:30;;;;;;;10.77;7.05;;;14.60;99.90;;;;;;4945433;29;20043;-63
2022/10/10 12:16:00;;;;;;;9.52;6.80;;;14.60;99.90;;;;;;4945170;29;20876;-62
2022/10/10 12:18:40;;;;;;;14.20;7.78;;;14.60;99.90;;;;;;4945393;29;20055;-61
2022/10/10 12:21:13;;;;;;;13.48;8.15;;;14.50;99.90;;;;;;4944617;29;20109;-62
2022/10/10 12:23:41;;;;;;;10.20;6.57;;;14.50;99.90;;;;;;4945590;29;20142;-62
2022/10/10 12:26:13;;;;;;;8.93;7.03;;;14.50;99.90;;;;;;4944956;29;20047;-63
2022/10/10 12:28:57;;;;;;;11.50;7.63;;;14.50;99.90;;;;;;4945256;29;20042;-62
2022/10/10 12:31:37;;;;;;;10.70;7.47;;;14.50;99.90;;;;;;4944696;29;20047;-62
2022/10/10 12:34:05;;;;;;;12.95;7.55;;;14.30;99.90;;;;;;4943715;29;20282;-62
2022/10/10 12:36:30;;;;;;;15.10;8.55;;;14.30;99.90;;;;;;4945558;29;20736;-63
2022/10/10 12:39:04;;;;;;;14.52;8.10;;;14.30;99.90;;;;;;4945924;29;20036;-62
2022/10/10 12:41:48;;;;;;;11.40;7.82;;;14.10;99.90;;;;;;4927642;29;20059;-63
2022/10/10 12:44:14;;;;;;;10.48;7.65;;;14.10;99.90;;;;;;4944823;29;20055;-62
2022/10/10 12:46:41;;;;;;;12.10;7.10;;;14.10;99.90;;;;;;4945117;29;20051;-62
2022/10/10 12:49:25;;;;;;;12.18;7.32;;;14.10;99.90;;;;;;4926543;29;20102;-62
2022/10/10 12:52:19;;;;;;;12.43;7.97;;;14.00;99.90;;;;;;4944340;29;20043;-63
2022/10/10 12:54:46;;;;;;;11.10;7.47;;;14.00;99.90;;;;;;4944589;29;20101;-63
2022/10/10 12:57:15;;;;;;;11.52;7.18;;;14.10;99.90;;;;;;4944873;29;20051;-62
2022/10/10 12:59:41;;;;;;;15.85;7.65;;;14.00;99.90;;;;;;4944509;29;20066;-64
2022/10/10 13:02:26;;;;;;;13.13;7.57;;;14.10;99.90;;;;;;4944748;29;20167;-63
2022/10/10 13:04:57;;;;;;;11.65;7.65;;;14.10;99.90;;;;;;4944071;29;20060;-68
2022/10/10 13:07:23;;;;;;;21.65;9.90;;;14.10;99.90;;;;;;4939813;29;20414;-68
2022/10/10 13:09:52;;;;;;;13.20;7.25;;;14.10;99.90;;;;;;4927519;29;20047;-67